sensor_id;sensor_type;location;lat;lon;timestamp;P1;durP1;ratioP1;P2;durP2;ratioP2
21148;SDS011;10732;51.472;6.466;2024-01-30T00:02:16;18.38;;;11.98;;
21148;SDS011;10732;51.472;6.466;2024-01-30T00:04:42;16.27;;;12.07;;
21148;SDS011;10732;51.472;6.466;2024-01-30T00:07:08;14.05;;;11.20;;
21148;SDS011;10732;51.472;6.466;2024-01-30T00:09:33;16.30;;;11.52;;
21148;SDS011;10732;51.472;6.466;2024-01-30T00:11:59;16.27;;;12.10;;
21148;SDS011;10732;51.472;6.466;2024-01-30T00:14:24;15.27;;;12.15;;
21148;SDS011;10732;51.472;6.466;2024-01-30T00:16:50;16.38;;;12.02;;
21148;SDS011;10732;51.472;6.466;2024-01-30T00:19:16;16.95;;;13.05;;
21148;SDS011;10732;51.472;6.466;2024-01-30T00:21:42;15.40;;;12.00;;
21148;SDS011;10732;51.472;6.466;2024-01-30T00:24:07;19.10;;;12.60;;
21148;SDS011;10732;51.472;6.466;2024-01-30T00:26:33;18.63;;;13.02;;
21148;SDS011;10732;51.472;6.466;2024-01-30T00:28:59;17.55;;;13.23;;
21148;SDS011;10732;51.472;6.466;2024-01-30T00:31:24;17.52;;;12.40;;
21148;SDS011;10732;51.472;6.466;2024-01-30T00:33:50;19.77;;;12.73;;
21148;SDS011;10732;51.472;6.466;2024-01-30T00:36:15;19.73;;;12.75;;
21148;SDS011;10732;51.472;6.466;2024-01-30T00:38:41;18.83;;;13.43;;
21148;SDS011;10732;51.472;6.466;2024-01-30T00:41:07;18.25;;;12.90;;
21148;SDS011;10732;51.472;6.466;2024-01-30T00:43:33;16.50;;;13.23;;
21148;SDS011;10732;51.472;6.466;2024-01-30T00:45:59;16.10;;;13.23;;
21148;SDS011;10732;51.472;6.466;2024-01-30T00:48:25;18.42;;;12.45;;
21148;SDS011;10732;51.472;6.466;2024-01-30T00:50:50;15.95;;;12.77;;
21148;SDS011;10732;51.472;6.466;2024-01-30T00:53:16;16.13;;;12.02;;
21148;SDS011;10732;51.472;6.466;2024-01-30T00:55:41;17.27;;;12.50;;
21148;SDS011;10732;51.472;6.466;2024-01-30T00:58:07;16.08;;;11.82;;
21148;SDS011;10732;51.472;6.466;2024-01-30T01:00:33;18.63;;;12.38;;
21148;SDS011;10732;51.472;6.466;2024-01-30T01:02:58;16.83;;;11.57;;
21148;SDS011;10732;51.472;6.466;2024-01-30T01:05:24;19.75;;;13.23;;
21148;SDS011;10732;51.472;6.466;2024-01-30T01:07:50;18.00;;;12.13;;
21148;SDS011;10732;51.472;6.466;2024-01-30T01:10:16;19.17;;;11.77;;
21148;SDS011;10732;51.472;6.466;2024-01-30T01:12:43;15.23;;;12.15;;
21148;SDS011;10732;51.472;6.466;2024-01-30T01:15:09;17.65;;;12.13;;
21148;SDS011;10732;51.472;6.466;2024-01-30T01:17:38;17.40;;;12.35;;
21148;SDS011;10732;51.472;6.466;2024-01-30T01:20:05;18.48;;;12.65;;
21148;SDS011;10732;51.472;6.466;2024-01-30T01:22:31;17.98;;;12.48;;
21148;SDS011;10732;51.472;6.466;2024-01-30T01:24:57;20.17;;;12.40;;
21148;SDS011;10732;51.472;6.466;2024-01-30T01:27:23;17.45;;;12.43;;
21148;SDS011;10732;51.472;6.466;2024-01-30T01:29:49;17.50;;;12.23;;
21148;SDS011;10732;51.472;6.466;2024-01-30T01:32:15;14.38;;;11.73;;
21148;SDS011;10732;51.472;6.466;2024-01-30T01:34:41;19.85;;;12.40;;
21148;SDS011;10732;51.472;6.466;2024-01-30T01:37:06;17.38;;;11.95;;
21148;SDS011;10732;51.472;6.466;2024-01-30T01:39:32;17.45;;;12.52;;
21148;SDS011;10732;51.472;6.466;2024-01-30T01:41:58;16.27;;;12.20;;
21148;SDS011;10732;51.472;6.466;2024-01-30T01:44:23;17.08;;;12.43;;
21148;SDS011;10732;51.472;6.466;2024-01-30T01:46:49;18.15;;;13.23;;
21148;SDS011;10732;51.472;6.466;2024-01-30T01:49:16;15.18;;;12.05;;
21148;SDS011;10732;51.472;6.466;2024-01-30T01:51:41;16.75;;;11.65;;
21148;SDS011;10732;51.472;6.466;2024-01-30T01:54:09;15.68;;;11.70;;
21148;SDS011;10732;51.472;6.466;2024-01-30T01:56:36;18.80;;;12.52;;
21148;SDS011;10732;51.472;6.466;2024-01-30T01:59:07;16.55;;;12.02;;
21148;SDS011;10732;51.472;6.466;2024-01-30T02:01:33;15.85;;;12.23;;
21148;SDS011;10732;51.472;6.466;2024-01-30T02:04:01;14.77;;;11.75;;
21148;SDS011;10732;51.472;6.466;2024-01-30T02:06:26;16.70;;;11.57;;
21148;SDS011;10732;51.472;6.466;2024-01-30T02:08:53;14.98;;;11.85;;
21148;SDS011;10732;51.472;6.466;2024-01-30T02:11:19;17.55;;;12.48;;
21148;SDS011;10732;51.472;6.466;2024-01-30T02:13:45;16.80;;;11.95;;
21148;SDS011;10732;51.472;6.466;2024-01-30T02:16:11;15.57;;;11.75;;
21148;SDS011;10732;51.472;6.466;2024-01-30T02:18:37;18.35;;;11.63;;
21148;SDS011;10732;51.472;6.466;2024-01-30T02:21:07;18.42;;;12.73;;
21148;SDS011;10732;51.472;6.466;2024-01-30T02:23:32;17.77;;;12.18;;
21148;SDS011;10732;51.472;6.466;2024-01-30T02:25:59;18.30;;;12.60;;
21148;SDS011;10732;51.472;6.466;2024-01-30T02:28:25;16.27;;;12.45;;
21148;SDS011;10732;51.472;6.466;2024-01-30T02:30:50;15.05;;;11.70;;
21148;SDS011;10732;51.472;6.466;2024-01-30T02:33:16;19.25;;;12.40;;
21148;SDS011;10732;51.472;6.466;2024-01-30T02:35:42;17.70;;;12.40;;
21148;SDS011;10732;51.472;6.466;2024-01-30T02:38:07;16.77;;;12.40;;
21148;SDS011;10732;51.472;6.466;2024-01-30T02:40:33;19.35;;;13.00;;
21148;SDS011;10732;51.472;6.466;2024-01-30T02:42:59;18.13;;;12.52;;
21148;SDS011;10732;51.472;6.466;2024-01-30T02:45:25;17.95;;;12.88;;
21148;SDS011;10732;51.472;6.466;2024-01-30T02:47:50;21.05;;;12.80;;
21148;SDS011;10732;51.472;6.466;2024-01-30T02:50:16;18.02;;;12.25;;
21148;SDS011;10732;51.472;6.466;2024-01-30T02:52:42;16.33;;;12.23;;
21148;SDS011;10732;51.472;6.466;2024-01-30T02:55:09;16.10;;;12.10;;
21148;SDS011;10732;51.472;6.466;2024-01-30T02:57:34;17.08;;;12.20;;
21148;SDS011;10732;51.472;6.466;2024-01-30T03:00:00;15.75;;;11.60;;
21148;SDS011;10732;51.472;6.466;2024-01-30T03:02:26;18.35;;;13.07;;
21148;SDS011;10732;51.472;6.466;2024-01-30T03:04:51;17.30;;;11.55;;
21148;SDS011;10732;51.472;6.466;2024-01-30T03:07:17;16.17;;;11.93;;
21148;SDS011;10732;51.472;6.466;2024-01-30T03:09:42;17.85;;;11.80;;
21148;SDS011;10732;51.472;6.466;2024-01-30T03:12:09;17.67;;;12.32;;
21148;SDS011;10732;51.472;6.466;2024-01-30T03:14:34;16.40;;;12.43;;
21148;SDS011;10732;51.472;6.466;2024-01-30T03:17:00;17.90;;;12.27;;
21148;SDS011;10732;51.472;6.466;2024-01-30T03:19:25;17.17;;;12.20;;
21148;SDS011;10732;51.472;6.466;2024-01-30T03:21:51;17.17;;;12.48;;
21148;SDS011;10732;51.472;6.466;2024-01-30T03:24:17;20.85;;;12.68;;
21148;SDS011;10732;51.472;6.466;2024-01-30T03:26:43;18.65;;;11.93;;
21148;SDS011;10732;51.472;6.466;2024-01-30T03:29:08;18.98;;;11.70;;
21148;SDS011;10732;51.472;6.466;2024-01-30T03:31:34;18.67;;;12.60;;
21148;SDS011;10732;51.472;6.466;2024-01-30T03:34:00;18.92;;;11.63;;
21148;SDS011;10732;51.472;6.466;2024-01-30T03:36:26;15.20;;;12.20;;
21148;SDS011;10732;51.472;6.466;2024-01-30T03:38:52;15.73;;;12.32;;
21148;SDS011;10732;51.472;6.466;2024-01-30T03:41:17;16.15;;;12.40;;
21148;SDS011;10732;51.472;6.466;2024-01-30T03:43:43;17.70;;;12.80;;
21148;SDS011;10732;51.472;6.466;2024-01-30T03:46:08;18.08;;;12.25;;
21148;SDS011;10732;51.472;6.466;2024-01-30T03:48:34;17.70;;;13.00;;
21148;SDS011;10732;51.472;6.466;2024-01-30T03:50:59;15.98;;;11.88;;
21148;SDS011;10732;51.472;6.466;2024-01-30T03:53:25;17.23;;;13.00;;
21148;SDS011;10732;51.472;6.466;2024-01-30T03:55:51;17.40;;;12.93;;
21148;SDS011;10732;51.472;6.466;2024-01-30T03:58:16;18.10;;;13.02;;
21148;SDS011;10732;51.472;6.466;2024-01-30T04:00:42;17.92;;;13.25;;
21148;SDS011;10732;51.472;6.466;2024-01-30T04:03:07;18.23;;;13.18;;
21148;SDS011;10732;51.472;6.466;2024-01-30T04:05:33;20.17;;;13.05;;
21148;SDS011;10732;51.472;6.466;2024-01-30T04:07:59;19.48;;;13.02;;
21148;SDS011;10732;51.472;6.466;2024-01-30T04:10:24;18.92;;;13.02;;
21148;SDS011;10732;51.472;6.466;2024-01-30T04:12:50;18.92;;;13.25;;
21148;SDS011;10732;51.472;6.466;2024-01-30T04:15:16;19.00;;;13.32;;
21148;SDS011;10732;51.472;6.466;2024-01-30T04:17:43;20.02;;;13.20;;
21148;SDS011;10732;51.472;6.466;2024-01-30T04:20:13;18.77;;;12.75;;
21148;SDS011;10732;51.472;6.466;2024-01-30T04:22:45;19.10;;;12.90;;
21148;SDS011;10732;51.472;6.466;2024-01-30T04:25:11;18.15;;;12.85;;
21148;SDS011;10732;51.472;6.466;2024-01-30T04:27:38;20.25;;;12.98;;
21148;SDS011;10732;51.472;6.466;2024-01-30T04:30:03;17.73;;;13.50;;
21148;SDS011;10732;51.472;6.466;2024-01-30T04:32:29;18.05;;;12.32;;
21148;SDS011;10732;51.472;6.466;2024-01-30T04:34:55;18.83;;;12.77;;
21148;SDS011;10732;51.472;6.466;2024-01-30T04:37:21;15.80;;;12.25;;
21148;SDS011;10732;51.472;6.466;2024-01-30T04:39:46;20.30;;;13.35;;
21148;SDS011;10732;51.472;6.466;2024-01-30T04:42:12;22.17;;;13.30;;
21148;SDS011;10732;51.472;6.466;2024-01-30T04:44:38;17.90;;;12.77;;
21148;SDS011;10732;51.472;6.466;2024-01-30T04:47:03;19.20;;;13.70;;
21148;SDS011;10732;51.472;6.466;2024-01-30T04:49:31;18.42;;;13.15;;
21148;SDS011;10732;51.472;6.466;2024-01-30T04:51:57;17.38;;;12.80;;
21148;SDS011;10732;51.472;6.466;2024-01-30T04:54:22;18.95;;;12.73;;
21148;SDS011;10732;51.472;6.466;2024-01-30T04:56:48;16.55;;;11.88;;
21148;SDS011;10732;51.472;6.466;2024-01-30T04:59:14;19.60;;;12.88;;
21148;SDS011;10732;51.472;6.466;2024-01-30T05:01:39;15.88;;;12.18;;
21148;SDS011;10732;51.472;6.466;2024-01-30T05:04:07;15.82;;;11.40;;
21148;SDS011;10732;51.472;6.466;2024-01-30T05:06:33;13.80;;;11.65;;
21148;SDS011;10732;51.472;6.466;2024-01-30T05:08:58;19.17;;;11.63;;
21148;SDS011;10732;51.472;6.466;2024-01-30T05:11:24;15.38;;;11.95;;
21148;SDS011;10732;51.472;6.466;2024-01-30T05:13:49;17.92;;;11.45;;
21148;SDS011;10732;51.472;6.466;2024-01-30T05:16:15;15.35;;;11.15;;
21148;SDS011;10732;51.472;6.466;2024-01-30T05:18:40;15.35;;;11.77;;
21148;SDS011;10732;51.472;6.466;2024-01-30T05:21:06;17.42;;;11.27;;
21148;SDS011;10732;51.472;6.466;2024-01-30T05:23:31;14.38;;;11.35;;
21148;SDS011;10732;51.472;6.466;2024-01-30T05:25:57;17.35;;;11.07;;
21148;SDS011;10732;51.472;6.466;2024-01-30T05:28:24;15.35;;;11.02;;
21148;SDS011;10732;51.472;6.466;2024-01-30T05:30:49;13.98;;;11.48;;
21148;SDS011;10732;51.472;6.466;2024-01-30T05:33:15;15.15;;;11.18;;
21148;SDS011;10732;51.472;6.466;2024-01-30T05:35:40;15.82;;;11.13;;
21148;SDS011;10732;51.472;6.466;2024-01-30T05:38:06;13.95;;;11.13;;
21148;SDS011;10732;51.472;6.466;2024-01-30T05:40:31;12.38;;;10.27;;
21148;SDS011;10732;51.472;6.466;2024-01-30T05:42:57;15.05;;;11.23;;
21148;SDS011;10732;51.472;6.466;2024-01-30T05:45:27;14.52;;;11.13;;
21148;SDS011;10732;51.472;6.466;2024-01-30T05:47:53;16.73;;;10.65;;
21148;SDS011;10732;51.472;6.466;2024-01-30T05:50:19;15.27;;;10.85;;
21148;SDS011;10732;51.472;6.466;2024-01-30T05:52:45;14.70;;;10.65;;
21148;SDS011;10732;51.472;6.466;2024-01-30T05:55:11;15.10;;;11.05;;
21148;SDS011;10732;51.472;6.466;2024-01-30T05:57:37;13.52;;;10.88;;
21148;SDS011;10732;51.472;6.466;2024-01-30T06:00:03;16.73;;;11.02;;
21148;SDS011;10732;51.472;6.466;2024-01-30T06:02:30;14.35;;;10.73;;
21148;SDS011;10732;51.472;6.466;2024-01-30T06:04:56;13.38;;;10.48;;
21148;SDS011;10732;51.472;6.466;2024-01-30T06:07:21;13.90;;;10.68;;
21148;SDS011;10732;51.472;6.466;2024-01-30T06:09:47;13.70;;;10.23;;
21148;SDS011;10732;51.472;6.466;2024-01-30T06:12:13;17.65;;;10.75;;
21148;SDS011;10732;51.472;6.466;2024-01-30T06:14:38;13.43;;;10.13;;
21148;SDS011;10732;51.472;6.466;2024-01-30T06:17:04;16.02;;;11.43;;
21148;SDS011;10732;51.472;6.466;2024-01-30T06:19:30;15.15;;;11.40;;
21148;SDS011;10732;51.472;6.466;2024-01-30T06:21:57;19.08;;;11.80;;
21148;SDS011;10732;51.472;6.466;2024-01-30T06:24:22;16.42;;;11.00;;
21148;SDS011;10732;51.472;6.466;2024-01-30T06:26:48;17.85;;;11.90;;
21148;SDS011;10732;51.472;6.466;2024-01-30T06:29:13;17.63;;;11.98;;
21148;SDS011;10732;51.472;6.466;2024-01-30T06:31:42;18.50;;;12.50;;
21148;SDS011;10732;51.472;6.466;2024-01-30T06:34:09;16.55;;;11.63;;
21148;SDS011;10732;51.472;6.466;2024-01-30T06:36:36;18.30;;;12.13;;
21148;SDS011;10732;51.472;6.466;2024-01-30T06:39:02;17.52;;;11.90;;
21148;SDS011;10732;51.472;6.466;2024-01-30T06:41:28;20.02;;;12.90;;
21148;SDS011;10732;51.472;6.466;2024-01-30T06:43:53;16.83;;;11.75;;
21148;SDS011;10732;51.472;6.466;2024-01-30T06:46:19;18.85;;;11.90;;
21148;SDS011;10732;51.472;6.466;2024-01-30T06:48:44;17.70;;;11.55;;
21148;SDS011;10732;51.472;6.466;2024-01-30T06:51:10;16.05;;;11.63;;
21148;SDS011;10732;51.472;6.466;2024-01-30T06:53:37;15.52;;;11.48;;
21148;SDS011;10732;51.472;6.466;2024-01-30T06:56:02;17.48;;;12.15;;
21148;SDS011;10732;51.472;6.466;2024-01-30T06:58:28;16.00;;;11.18;;
21148;SDS011;10732;51.472;6.466;2024-01-30T07:00:54;17.77;;;11.95;;
21148;SDS011;10732;51.472;6.466;2024-01-30T07:03:19;15.60;;;11.70;;
21148;SDS011;10732;51.472;6.466;2024-01-30T07:05:45;20.65;;;12.40;;
21148;SDS011;10732;51.472;6.466;2024-01-30T07:08:10;19.13;;;12.20;;
21148;SDS011;10732;51.472;6.466;2024-01-30T07:10:36;18.95;;;12.60;;
21148;SDS011;10732;51.472;6.466;2024-01-30T07:13:02;17.55;;;12.48;;
21148;SDS011;10732;51.472;6.466;2024-01-30T07:15:29;18.35;;;11.82;;
21148;SDS011;10732;51.472;6.466;2024-01-30T07:17:54;17.50;;;11.43;;
21148;SDS011;10732;51.472;6.466;2024-01-30T07:20:20;17.60;;;11.90;;
21148;SDS011;10732;51.472;6.466;2024-01-30T07:22:46;20.75;;;13.20;;
21148;SDS011;10732;51.472;6.466;2024-01-30T07:25:12;17.58;;;11.90;;
21148;SDS011;10732;51.472;6.466;2024-01-30T07:27:37;17.80;;;11.90;;
21148;SDS011;10732;51.472;6.466;2024-01-30T07:30:03;16.85;;;12.20;;
21148;SDS011;10732;51.472;6.466;2024-01-30T07:32:29;17.38;;;11.57;;
21148;SDS011;10732;51.472;6.466;2024-01-30T07:34:54;17.67;;;11.55;;
21148;SDS011;10732;51.472;6.466;2024-01-30T07:37:20;19.75;;;12.77;;
21148;SDS011;10732;51.472;6.466;2024-01-30T07:39:45;18.58;;;11.57;;
21148;SDS011;10732;51.472;6.466;2024-01-30T07:42:12;14.18;;;11.07;;
21148;SDS011;10732;51.472;6.466;2024-01-30T07:44:37;20.73;;;12.40;;
21148;SDS011;10732;51.472;6.466;2024-01-30T07:47:03;19.33;;;12.43;;
21148;SDS011;10732;51.472;6.466;2024-01-30T07:49:29;19.02;;;12.90;;
21148;SDS011;10732;51.472;6.466;2024-01-30T07:51:55;18.98;;;11.55;;
21148;SDS011;10732;51.472;6.466;2024-01-30T07:54:20;19.05;;;12.32;;
21148;SDS011;10732;51.472;6.466;2024-01-30T07:56:46;19.42;;;12.98;;
21148;SDS011;10732;51.472;6.466;2024-01-30T07:59:11;18.83;;;12.32;;
21148;SDS011;10732;51.472;6.466;2024-01-30T08:01:37;17.65;;;11.90;;
21148;SDS011;10732;51.472;6.466;2024-01-30T08:04:03;19.65;;;13.45;;
21148;SDS011;10732;51.472;6.466;2024-01-30T08:06:29;16.15;;;12.00;;
21148;SDS011;10732;51.472;6.466;2024-01-30T08:08:54;19.38;;;13.30;;
21148;SDS011;10732;51.472;6.466;2024-01-30T08:11:20;16.92;;;11.32;;
21148;SDS011;10732;51.472;6.466;2024-01-30T08:13:51;22.60;;;11.20;;
21148;SDS011;10732;51.472;6.466;2024-01-30T08:16:17;21.95;;;14.57;;
21148;SDS011;10732;51.472;6.466;2024-01-30T08:18:43;20.20;;;11.95;;
21148;SDS011;10732;51.472;6.466;2024-01-30T08:21:08;14.38;;;9.63;;
21148;SDS011;10732;51.472;6.466;2024-01-30T08:23:34;16.08;;;11.63;;
21148;SDS011;10732;51.472;6.466;2024-01-30T08:25:59;19.08;;;12.38;;
21148;SDS011;10732;51.472;6.466;2024-01-30T08:28:25;16.65;;;11.82;;
21148;SDS011;10732;51.472;6.466;2024-01-30T08:30:51;19.05;;;13.40;;
21148;SDS011;10732;51.472;6.466;2024-01-30T08:33:17;18.17;;;12.57;;
21148;SDS011;10732;51.472;6.466;2024-01-30T08:35:42;15.70;;;11.93;;
21148;SDS011;10732;51.472;6.466;2024-01-30T08:38:08;15.13;;;10.98;;
21148;SDS011;10732;51.472;6.466;2024-01-30T08:40:33;16.63;;;10.73;;
21148;SDS011;10732;51.472;6.466;2024-01-30T08:42:59;15.13;;;11.45;;
21148;SDS011;10732;51.472;6.466;2024-01-30T08:45:25;13.00;;;10.13;;
21148;SDS011;10732;51.472;6.466;2024-01-30T08:47:51;18.20;;;10.50;;
21148;SDS011;10732;51.472;6.466;2024-01-30T08:50:16;14.38;;;10.32;;
21148;SDS011;10732;51.472;6.466;2024-01-30T08:52:42;11.75;;;9.32;;
21148;SDS011;10732;51.472;6.466;2024-01-30T08:55:08;15.65;;;9.55;;
21148;SDS011;10732;51.472;6.466;2024-01-30T08:57:34;13.48;;;9.63;;
21148;SDS011;10732;51.472;6.466;2024-01-30T08:59:59;12.38;;;9.30;;
21148;SDS011;10732;51.472;6.466;2024-01-30T09:02:25;11.52;;;9.27;;
21148;SDS011;10732;51.472;6.466;2024-01-30T09:04:51;16.35;;;9.55;;
21148;SDS011;10732;51.472;6.466;2024-01-30T09:07:16;18.13;;;10.75;;
21148;SDS011;10732;51.472;6.466;2024-01-30T09:09:42;12.38;;;9.30;;
21148;SDS011;10732;51.472;6.466;2024-01-30T09:12:07;10.93;;;9.32;;
21148;SDS011;10732;51.472;6.466;2024-01-30T09:14:34;14.50;;;9.65;;
21148;SDS011;10732;51.472;6.466;2024-01-30T09:17:00;15.77;;;10.80;;
21148;SDS011;10732;51.472;6.466;2024-01-30T09:19:28;14.77;;;10.25;;
21148;SDS011;10732;51.472;6.466;2024-01-30T09:21:53;13.52;;;9.82;;
21148;SDS011;10732;51.472;6.466;2024-01-30T09:24:19;13.55;;;9.80;;
21148;SDS011;10732;51.472;6.466;2024-01-30T09:26:44;12.98;;;9.15;;
21148;SDS011;10732;51.472;6.466;2024-01-30T09:29:10;11.57;;;8.43;;
21148;SDS011;10732;51.472;6.466;2024-01-30T09:31:36;13.50;;;9.10;;
21148;SDS011;10732;51.472;6.466;2024-01-30T09:34:01;13.10;;;8.57;;
21148;SDS011;10732;51.472;6.466;2024-01-30T09:36:27;13.05;;;8.85;;
21148;SDS011;10732;51.472;6.466;2024-01-30T09:38:52;11.43;;;8.40;;
21148;SDS011;10732;51.472;6.466;2024-01-30T09:41:18;10.52;;;8.25;;
21148;SDS011;10732;51.472;6.466;2024-01-30T09:43:46;11.93;;;8.10;;
21148;SDS011;10732;51.472;6.466;2024-01-30T09:46:14;11.27;;;7.53;;
21148;SDS011;10732;51.472;6.466;2024-01-30T09:48:41;13.35;;;8.00;;
21148;SDS011;10732;51.472;6.466;2024-01-30T09:51:08;11.82;;;7.75;;
21148;SDS011;10732;51.472;6.466;2024-01-30T09:53:35;12.23;;;7.90;;
21148;SDS011;10732;51.472;6.466;2024-01-30T09:56:02;11.48;;;7.97;;
21148;SDS011;10732;51.472;6.466;2024-01-30T09:58:28;9.05;;;7.13;;
21148;SDS011;10732;51.472;6.466;2024-01-30T10:00:53;11.90;;;7.60;;
21148;SDS011;10732;51.472;6.466;2024-01-30T10:03:19;13.13;;;8.45;;
21148;SDS011;10732;51.472;6.466;2024-01-30T10:05:47;13.43;;;8.43;;
21148;SDS011;10732;51.472;6.466;2024-01-30T10:08:17;11.40;;;8.05;;
21148;SDS011;10732;51.472;6.466;2024-01-30T10:10:45;12.30;;;8.40;;
21148;SDS011;10732;51.472;6.466;2024-01-30T10:13:14;11.70;;;8.52;;
21148;SDS011;10732;51.472;6.466;2024-01-30T10:15:41;15.30;;;8.23;;
21148;SDS011;10732;51.472;6.466;2024-01-30T10:18:06;12.77;;;8.43;;
21148;SDS011;10732;51.472;6.466;2024-01-30T10:20:35;13.68;;;8.55;;
21148;SDS011;10732;51.472;6.466;2024-01-30T10:23:01;11.63;;;8.32;;
21148;SDS011;10732;51.472;6.466;2024-01-30T10:25:26;12.43;;;8.85;;
21148;SDS011;10732;51.472;6.466;2024-01-30T10:27:55;13.55;;;9.55;;
21148;SDS011;10732;51.472;6.466;2024-01-30T10:30:24;11.73;;;8.93;;
21148;SDS011;10732;51.472;6.466;2024-01-30T10:32:49;14.82;;;9.02;;
21148;SDS011;10732;51.472;6.466;2024-01-30T10:35:16;16.98;;;9.90;;
21148;SDS011;10732;51.472;6.466;2024-01-30T10:37:46;14.23;;;9.13;;
21148;SDS011;10732;51.472;6.466;2024-01-30T10:40:13;13.98;;;9.77;;
21148;SDS011;10732;51.472;6.466;2024-01-30T10:42:42;17.27;;;9.80;;
21148;SDS011;10732;51.472;6.466;2024-01-30T10:45:09;14.40;;;9.32;;
21148;SDS011;10732;51.472;6.466;2024-01-30T10:47:42;11.30;;;9.10;;
21148;SDS011;10732;51.472;6.466;2024-01-30T10:50:09;13.38;;;9.27;;
21148;SDS011;10732;51.472;6.466;2024-01-30T10:52:35;15.90;;;9.55;;
21148;SDS011;10732;51.472;6.466;2024-01-30T10:55:03;13.73;;;9.38;;
21148;SDS011;10732;51.472;6.466;2024-01-30T10:57:31;12.77;;;8.80;;
21148;SDS011;10732;51.472;6.466;2024-01-30T11:00:03;13.15;;;9.30;;
21148;SDS011;10732;51.472;6.466;2024-01-30T11:02:39;10.85;;;8.85;;
21148;SDS011;10732;51.472;6.466;2024-01-30T11:05:07;13.32;;;9.23;;
21148;SDS011;10732;51.472;6.466;2024-01-30T11:07:33;11.15;;;8.27;;
21148;SDS011;10732;51.472;6.466;2024-01-30T11:10:00;13.82;;;9.38;;
21148;SDS011;10732;51.472;6.466;2024-01-30T11:12:29;12.00;;;9.07;;
21148;SDS011;10732;51.472;6.466;2024-01-30T11:15:16;16.98;;;9.25;;
21148;SDS011;10732;51.472;6.466;2024-01-30T11:20:21;15.80;;;9.38;;
21148;SDS011;10732;51.472;6.466;2024-01-30T11:22:51;13.63;;;9.45;;
21148;SDS011;10732;51.472;6.466;2024-01-30T11:25:19;16.13;;;9.88;;
21148;SDS011;10732;51.472;6.466;2024-01-30T11:27:45;14.43;;;9.75;;
21148;SDS011;10732;51.472;6.466;2024-01-30T11:33:08;15.00;;;9.13;;
21148;SDS011;10732;51.472;6.466;2024-01-30T11:35:39;13.02;;;10.32;;
21148;SDS011;10732;51.472;6.466;2024-01-30T11:38:09;16.83;;;9.80;;
21148;SDS011;10732;51.472;6.466;2024-01-30T11:40:38;11.77;;;9.52;;
21148;SDS011;10732;51.472;6.466;2024-01-30T11:43:05;14.32;;;9.98;;
21148;SDS011;10732;51.472;6.466;2024-01-30T11:45:32;14.13;;;9.43;;
21148;SDS011;10732;51.472;6.466;2024-01-30T11:47:59;13.60;;;9.48;;
21148;SDS011;10732;51.472;6.466;2024-01-30T11:50:26;16.23;;;9.52;;
21148;SDS011;10732;51.472;6.466;2024-01-30T11:52:53;12.77;;;9.27;;
21148;SDS011;10732;51.472;6.466;2024-01-30T11:55:19;18.20;;;10.43;;
21148;SDS011;10732;51.472;6.466;2024-01-30T11:57:45;12.40;;;8.77;;
21148;SDS011;10732;51.472;6.466;2024-01-30T12:00:17;11.98;;;8.38;;
21148;SDS011;10732;51.472;6.466;2024-01-30T12:02:43;13.50;;;8.52;;
21148;SDS011;10732;51.472;6.466;2024-01-30T12:05:14;12.73;;;8.30;;
21148;SDS011;10732;51.472;6.466;2024-01-30T12:07:39;12.45;;;7.55;;
21148;SDS011;10732;51.472;6.466;2024-01-30T12:10:05;10.20;;;7.25;;
21148;SDS011;10732;51.472;6.466;2024-01-30T12:12:34;11.40;;;6.63;;
21148;SDS011;10732;51.472;6.466;2024-01-30T12:15:00;12.05;;;7.50;;
21148;SDS011;10732;51.472;6.466;2024-01-30T12:17:30;13.20;;;7.32;;
21148;SDS011;10732;51.472;6.466;2024-01-30T12:22:39;13.60;;;7.63;;
21148;SDS011;10732;51.472;6.466;2024-01-30T12:25:10;14.18;;;7.05;;
21148;SDS011;10732;51.472;6.466;2024-01-30T12:27:36;10.52;;;7.75;;
21148;SDS011;10732;51.472;6.466;2024-01-30T12:30:09;11.48;;;7.35;;
21148;SDS011;10732;51.472;6.466;2024-01-30T12:32:36;13.98;;;7.60;;
21148;SDS011;10732;51.472;6.466;2024-01-30T12:35:06;11.30;;;7.32;;
21148;SDS011;10732;51.472;6.466;2024-01-30T12:37:33;10.45;;;7.00;;
21148;SDS011;10732;51.472;6.466;2024-01-30T12:39:58;15.85;;;7.28;;
21148;SDS011;10732;51.472;6.466;2024-01-30T12:42:24;10.85;;;6.10;;
21148;SDS011;10732;51.472;6.466;2024-01-30T12:44:52;10.90;;;6.35;;
21148;SDS011;10732;51.472;6.466;2024-01-30T12:47:18;13.40;;;6.47;;
21148;SDS011;10732;51.472;6.466;2024-01-30T12:49:46;10.25;;;5.95;;
21148;SDS011;10732;51.472;6.466;2024-01-30T12:52:12;10.55;;;6.72;;
21148;SDS011;10732;51.472;6.466;2024-01-30T12:54:39;11.35;;;6.78;;
21148;SDS011;10732;51.472;6.466;2024-01-30T12:57:05;12.50;;;6.90;;
21148;SDS011;10732;51.472;6.466;2024-01-30T12:59:31;12.00;;;6.95;;
21148;SDS011;10732;51.472;6.466;2024-01-30T13:01:56;9.10;;;6.40;;
21148;SDS011;10732;51.472;6.466;2024-01-30T13:04:23;14.38;;;6.65;;
21148;SDS011;10732;51.472;6.466;2024-01-30T13:06:49;10.07;;;6.63;;
21148;SDS011;10732;51.472;6.466;2024-01-30T13:09:14;11.02;;;6.25;;
21148;SDS011;10732;51.472;6.466;2024-01-30T13:11:40;12.77;;;6.90;;
21148;SDS011;10732;51.472;6.466;2024-01-30T13:14:06;10.60;;;6.47;;
21148;SDS011;10732;51.472;6.466;2024-01-30T13:16:31;10.20;;;6.97;;
21148;SDS011;10732;51.472;6.466;2024-01-30T13:18:57;10.25;;;6.45;;
21148;SDS011;10732;51.472;6.466;2024-01-30T13:21:23;11.82;;;6.63;;
21148;SDS011;10732;51.472;6.466;2024-01-30T13:23:48;11.43;;;6.63;;
21148;SDS011;10732;51.472;6.466;2024-01-30T13:26:18;10.95;;;6.75;;
21148;SDS011;10732;51.472;6.466;2024-01-30T13:28:43;10.75;;;7.00;;
21148;SDS011;10732;51.472;6.466;2024-01-30T13:31:09;15.00;;;6.80;;
21148;SDS011;10732;51.472;6.466;2024-01-30T13:33:34;10.90;;;7.25;;
21148;SDS011;10732;51.472;6.466;2024-01-30T13:36:00;11.30;;;6.95;;
21148;SDS011;10732;51.472;6.466;2024-01-30T13:38:25;16.42;;;6.70;;
21148;SDS011;10732;51.472;6.466;2024-01-30T13:40:51;11.82;;;6.97;;
21148;SDS011;10732;51.472;6.466;2024-01-30T13:43:17;12.00;;;6.40;;
21148;SDS011;10732;51.472;6.466;2024-01-30T13:45:43;12.40;;;6.90;;
21148;SDS011;10732;51.472;6.466;2024-01-30T13:48:08;10.48;;;7.03;;
21148;SDS011;10732;51.472;6.466;2024-01-30T13:50:34;10.93;;;7.43;;
21148;SDS011;10732;51.472;6.466;2024-01-30T13:53:00;12.48;;;7.40;;
21148;SDS011;10732;51.472;6.466;2024-01-30T13:55:27;16.63;;;8.13;;
21148;SDS011;10732;51.472;6.466;2024-01-30T13:57:52;12.23;;;7.97;;
21148;SDS011;10732;51.472;6.466;2024-01-30T14:00:18;12.55;;;7.38;;
21148;SDS011;10732;51.472;6.466;2024-01-30T14:02:43;10.32;;;6.40;;
21148;SDS011;10732;51.472;6.466;2024-01-30T14:05:09;10.55;;;5.25;;
21148;SDS011;10732;51.472;6.466;2024-01-30T14:07:35;7.45;;;4.40;;
21148;SDS011;10732;51.472;6.466;2024-01-30T14:10:02;6.57;;;4.07;;
21148;SDS011;10732;51.472;6.466;2024-01-30T14:12:28;9.02;;;4.60;;
21148;SDS011;10732;51.472;6.466;2024-01-30T14:14:55;10.40;;;4.25;;
21148;SDS011;10732;51.472;6.466;2024-01-30T14:17:20;10.52;;;4.22;;
21148;SDS011;10732;51.472;6.466;2024-01-30T14:19:46;6.80;;;4.07;;
21148;SDS011;10732;51.472;6.466;2024-01-30T14:22:11;9.88;;;4.32;;
21148;SDS011;10732;51.472;6.466;2024-01-30T14:24:37;8.52;;;4.00;;
21148;SDS011;10732;51.472;6.466;2024-01-30T14:27:02;7.28;;;3.88;;
21148;SDS011;10732;51.472;6.466;2024-01-30T14:29:28;10.60;;;3.80;;